sensor_id;sensor_type;location;lat;lon;timestamp;temperature;humidity
21481;DHT22;10902;48.158;8.634;2022-09-29T00:01:27;6.40;99.90
21481;DHT22;10902;48.158;8.634;2022-09-29T00:03:53;6.40;99.90
21481;DHT22;10902;48.158;8.634;2022-09-29T00:06:19;6.50;99.90
21481;DHT22;10902;48.158;8.634;2022-09-29T00:08:45;6.50;99.90
21481;DHT22;10902;48.158;8.634;2022-09-29T00:11:14;6.50;99.90
21481;DHT22;10902;48.158;8.634;2022-09-29T00:13:40;6.50;99.90
21481;DHT22;10902;48.158;8.634;2022-09-29T00:16:05;6.50;99.90
21481;DHT22;10902;48.158;8.634;2022-09-29T00:18:32;6.50;99.90
21481;DHT22;10902;48.158;8.634;2022-09-29T00:21:10;6.50;99.90
21481;DHT22;10902;48.158;8.634;2022-09-29T00:23:37;6.50;99.90
21481;DHT22;10902;48.158;8.634;2022-09-29T00:26:15;6.50;99.90
21481;DHT22;10902;48.158;8.634;2022-09-29T00:28:49;6.50;99.90
21481;DHT22;10902;48.158;8.634;2022-09-29T00:31:17;6.50;99.90
21481;DHT22;10902;48.158;8.634;2022-09-29T00:33:42;6.40;99.90
21481;DHT22;10902;48.158;8.634;2022-09-29T00:36:13;6.50;99.90
21481;DHT22;10902;48.158;8.634;2022-09-29T00:38:40;6.50;99.90
21481;DHT22;10902;48.158;8.634;2022-09-29T00:41:06;6.50;99.90
21481;DHT22;10902;48.158;8.634;2022-09-29T00:49:23;6.50;99.90
21481;DHT22;10902;48.158;8.634;2022-09-29T00:52:12;6.50;99.90
21481;DHT22;10902;48.158;8.634;2022-09-29T00:54:46;6.50;99.90
21481;DHT22;10902;48.158;8.634;2022-09-29T00:57:15;6.50;99.90
21481;DHT22;10902;48.158;8.634;2022-09-29T00:59:51;6.50;99.90
21481;DHT22;10902;48.158;8.634;2022-09-29T01:02:19;6.50;99.90
21481;DHT22;10902;48.158;8.634;2022-09-29T01:04:50;6.50;99.90
21481;DHT22;10902;48.158;8.634;2022-09-29T01:07:23;6.50;99.90
21481;DHT22;10902;48.158;8.634;2022-09-29T01:09:51;6.50;99.90
21481;DHT22;10902;48.158;8.634;2022-09-29T01:12:18;6.50;99.90
21481;DHT22;10902;48.158;8.634;2022-09-29T01:14:45;6.50;99.90
21481;DHT22;10902;48.158;8.634;2022-09-29T01:17:11;6.50;99.90
21481;DHT22;10902;48.158;8.634;2022-09-29T01:25:20;6.50;99.90
21481;DHT22;10902;48.158;8.634;2022-09-29T01:36:57;6.70;99.90
21481;DHT22;10902;48.158;8.634;2022-09-29T01:39:31;6.60;99.90
21481;DHT22;10902;48.158;8.634;2022-09-29T01:42:26;6.60;99.90
21481;DHT22;10902;48.158;8.634;2022-09-29T01:44:58;6.60;99.90
21481;DHT22;10902;48.158;8.634;2022-09-29T01:47:54;6.70;99.90
21481;DHT22;10902;48.158;8.634;2022-09-29T01:50:49;6.70;99.90
21481;DHT22;10902;48.158;8.634;2022-09-29T01:53:19;6.80;99.90
21481;DHT22;10902;48.158;8.634;2022-09-29T01:55:50;6.80;99.90
21481;DHT22;10902;48.158;8.634;2022-09-29T01:58:34;6.80;99.90
21481;DHT22;10902;48.158;8.634;2022-09-29T02:01:03;6.80;99.90
21481;DHT22;10902;48.158;8.634;2022-09-29T02:03:35;6.80;99.90
21481;DHT22;10902;48.158;8.634;2022-09-29T02:06:06;6.70;99.90
21481;DHT22;10902;48.158;8.634;2022-09-29T02:08:47;6.70;99.90
21481;DHT22;10902;48.158;8.634;2022-09-29T02:11:16;6.70;99.90
21481;DHT22;10902;48.158;8.634;2022-09-29T02:16:20;6.60;99.90
21481;DHT22;10902;48.158;8.634;2022-09-29T02:18:53;6.70;99.90
21481;DHT22;10902;48.158;8.634;2022-09-29T02:21:21;6.80;99.90
21481;DHT22;10902;48.158;8.634;2022-09-29T02:23:48;6.80;99.90
21481;DHT22;10902;48.158;8.634;2022-09-29T02:26:14;6.80;99.90
21481;DHT22;10902;48.158;8.634;2022-09-29T02:28:41;6.80;99.90
21481;DHT22;10902;48.158;8.634;2022-09-29T02:31:07;6.70;99.90
21481;DHT22;10902;48.158;8.634;2022-09-29T02:33:33;6.70;99.90
21481;DHT22;10902;48.158;8.634;2022-09-29T02:36:15;6.80;99.90
21481;DHT22;10902;48.158;8.634;2022-09-29T02:38:47;6.90;99.90
21481;DHT22;10902;48.158;8.634;2022-09-29T02:41:33;6.80;99.90
21481;DHT22;10902;48.158;8.634;2022-09-29T02:44:07;6.80;99.90
21481;DHT22;10902;48.158;8.634;2022-09-29T02:49:46;6.80;99.90
21481;DHT22;10902;48.158;8.634;2022-09-29T02:55:37;6.70;99.90
21481;DHT22;10902;48.158;8.634;2022-09-29T02:58:23;6.60;99.90
21481;DHT22;10902;48.158;8.634;2022-09-29T03:00:50;6.60;99.90
21481;DHT22;10902;48.158;8.634;2022-09-29T03:03:17;6.70;99.90
21481;DHT22;10902;48.158;8.634;2022-09-29T04:11:48;6.50;99.90
21481;DHT22;10902;48.158;8.634;2022-09-29T04:18:26;6.60;99.90
21481;DHT22;10902;48.158;8.634;2022-09-29T04:42:06;6.70;99.90
21481;DHT22;10902;48.158;8.634;2022-09-29T05:47:10;6.70;99.90
21481;DHT22;10902;48.158;8.634;2022-09-29T05:49:36;6.70;99.90
21481;DHT22;10902;48.158;8.634;2022-09-29T05:52:07;6.70;99.90
21481;DHT22;10902;48.158;8.634;2022-09-29T05:54:36;6.70;99.90
21481;DHT22;10902;48.158;8.634;2022-09-29T05:57:04;6.70;99.90
21481;DHT22;10902;48.158;8.634;2022-09-29T05:59:29;6.80;99.90
21481;DHT22;10902;48.158;8.634;2022-09-29T06:01:58;6.80;99.90
21481;DHT22;10902;48.158;8.634;2022-09-29T06:04:42;6.90;99.90
21481;DHT22;10902;48.158;8.634;2022-09-29T06:07:11;6.90;99.90
21481;DHT22;10902;48.158;8.634;2022-09-29T06:12:37;7.00;99.90
21481;DHT22;10902;48.158;8.634;2022-09-29T06:15:08;7.00;99.90
21481;DHT22;10902;48.158;8.634;2022-09-29T06:17:39;7.00;99.90
21481;DHT22;10902;48.158;8.634;2022-09-29T06:20:08;7.00;99.90
21481;DHT22;10902;48.158;8.634;2022-09-29T06:22:38;7.00;99.90
21481;DHT22;10902;48.158;8.634;2022-09-29T06:25:10;7.00;99.90
21481;DHT22;10902;48.158;8.634;2022-09-29T06:28:03;7.10;99.90
21481;DHT22;10902;48.158;8.634;2022-09-29T06:30:36;7.10;99.90
21481;DHT22;10902;48.158;8.634;2022-09-29T06:33:19;7.20;99.90
21481;DHT22;10902;48.158;8.634;2022-09-29T06:36:11;7.20;99.90
21481;DHT22;10902;48.158;8.634;2022-09-29T06:39:03;7.20;99.90
21481;DHT22;10902;48.158;8.634;2022-09-29T06:41:36;7.10;99.90
21481;DHT22;10902;48.158;8.634;2022-09-29T06:44:52;7.10;99.90
21481;DHT22;10902;48.158;8.634;2022-09-29T07:05:11;7.80;99.90
21481;DHT22;10902;48.158;8.634;2022-09-29T07:07:53;7.90;99.90
21481;DHT22;10902;48.158;8.634;2022-09-29T07:10:40;8.00;99.90
21481;DHT22;10902;48.158;8.634;2022-09-29T07:13:10;8.20;99.90
21481;DHT22;10902;48.158;8.634;2022-09-29T07:15:38;8.10;99.90
21481;DHT22;10902;48.158;8.634;2022-09-29T07:18:04;8.10;99.90
21481;DHT22;10902;48.158;8.634;2022-09-29T07:20:30;8.20;99.90
21481;DHT22;10902;48.158;8.634;2022-09-29T07:22:57;8.30;99.90
21481;DHT22;10902;48.158;8.634;2022-09-29T07:25:23;8.40;99.90
21481;DHT22;10902;48.158;8.634;2022-09-29T07:27:49;8.50;99.90
21481;DHT22;10902;48.158;8.634;2022-09-29T07:30:16;8.50;99.90
21481;DHT22;10902;48.158;8.634;2022-09-29T07:32:42;8.50;99.90
21481;DHT22;10902;48.158;8.634;2022-09-29T07:35:08;8.70;99.90
21481;DHT22;10902;48.158;8.634;2022-09-29T07:37:33;8.80;99.90
21481;DHT22;10902;48.158;8.634;2022-09-29T07:39:59;8.90;99.90
21481;DHT22;10902;48.158;8.634;2022-09-29T07:42:26;8.90;99.90
21481;DHT22;10902;48.158;8.634;2022-09-29T07:44:52;9.10;99.90
21481;DHT22;10902;48.158;8.634;2022-09-29T07:47:18;9.30;99.90
21481;DHT22;10902;48.158;8.634;2022-09-29T07:49:43;9.30;99.90
21481;DHT22;10902;48.158;8.634;2022-09-29T07:52:11;9.10;99.90
21481;DHT22;10902;48.158;8.634;2022-09-29T07:54:36;9.00;99.90
21481;DHT22;10902;48.158;8.634;2022-09-29T07:57:02;8.90;99.90
21481;DHT22;10902;48.158;8.634;2022-09-29T07:59:28;8.90;99.90
21481;DHT22;10902;48.158;8.634;2022-09-29T08:01:54;9.10;99.90
21481;DHT22;10902;48.158;8.634;2022-09-29T08:04:20;9.20;99.90
21481;DHT22;10902;48.158;8.634;2022-09-29T08:06:46;9.20;99.90
21481;DHT22;10902;48.158;8.634;2022-09-29T08:09:12;9.20;99.90
21481;DHT22;10902;48.158;8.634;2022-09-29T08:11:40;9.40;99.90
21481;DHT22;10902;48.158;8.634;2022-09-29T08:14:07;9.60;99.90
21481;DHT22;10902;48.158;8.634;2022-09-29T08:16:33;9.70;99.90
21481;DHT22;10902;48.158;8.634;2022-09-29T08:19:00;9.70;99.90
21481;DHT22;10902;48.158;8.634;2022-09-29T08:21:26;9.90;99.90
21481;DHT22;10902;48.158;8.634;2022-09-29T08:23:52;9.80;99.90
21481;DHT22;10902;48.158;8.634;2022-09-29T08:26:20;10.10;99.90
21481;DHT22;10902;48.158;8.634;2022-09-29T08:28:46;10.10;99.90
21481;DHT22;10902;48.158;8.634;2022-09-29T08:31:17;10.00;99.90
21481;DHT22;10902;48.158;8.634;2022-09-29T08:33:48;9.90;99.90
21481;DHT22;10902;48.158;8.634;2022-09-29T08:36:20;9.90;99.90
21481;DHT22;10902;48.158;8.634;2022-09-29T08:38:51;9.70;99.90
21481;DHT22;10902;48.158;8.634;2022-09-29T08:47:26;8.80;99.90
21481;DHT22;10902;48.158;8.634;2022-09-29T08:50:00;9.00;99.90
21481;DHT22;10902;48.158;8.634;2022-09-29T08:52:38;9.10;99.90
21481;DHT22;10902;48.158;8.634;2022-09-29T08:57:44;9.30;99.90
21481;DHT22;10902;48.158;8.634;2022-09-29T09:00:12;9.30;99.90
21481;DHT22;10902;48.158;8.634;2022-09-29T09:08:09;8.90;99.90
21481;DHT22;10902;48.158;8.634;2022-09-29T09:10:42;8.90;99.90
21481;DHT22;10902;48.158;8.634;2022-09-29T09:23:55;9.40;99.90
21481;DHT22;10902;48.158;8.634;2022-09-29T09:29:02;9.80;99.90
21481;DHT22;10902;48.158;8.634;2022-09-29T09:34:22;9.70;99.90
21481;DHT22;10902;48.158;8.634;2022-09-29T09:36:57;9.70;99.90
21481;DHT22;10902;48.158;8.634;2022-09-29T09:39:25;10.00;99.90
21481;DHT22;10902;48.158;8.634;2022-09-29T09:41:54;10.30;99.90
21481;DHT22;10902;48.158;8.634;2022-09-29T09:44:28;10.50;99.90
21481;DHT22;10902;48.158;8.634;2022-09-29T09:47:00;10.70;99.90
21481;DHT22;10902;48.158;8.634;2022-09-29T09:49:39;10.80;99.90
21481;DHT22;10902;48.158;8.634;2022-09-29T09:52:16;10.80;99.90
21481;DHT22;10902;48.158;8.634;2022-09-29T09:54:46;10.80;99.90
21481;DHT22;10902;48.158;8.634;2022-09-29T10:00:13;11.00;99.90
21481;DHT22;10902;48.158;8.634;2022-09-29T10:02:47;10.70;99.90
21481;DHT22;10902;48.158;8.634;2022-09-29T10:05:16;10.60;99.90
21481;DHT22;10902;48.158;8.634;2022-09-29T10:07:42;10.60;99.90
21481;DHT22;10902;48.158;8.634;2022-09-29T10:10:18;11.00;99.90
21481;DHT22;10902;48.158;8.634;2022-09-29T10:12:44;11.10;99.90
21481;DHT22;10902;48.158;8.634;2022-09-29T10:15:32;11.10;99.90
21481;DHT22;10902;48.158;8.634;2022-09-29T10:18:05;11.00;99.90
21481;DHT22;10902;48.158;8.634;2022-09-29T10:20:37;11.10;99.90
21481;DHT22;10902;48.158;8.634;2022-09-29T10:23:32;11.10;99.90
21481;DHT22;10902;48.158;8.634;2022-09-29T10:28:39;10.20;99.90
21481;DHT22;10902;48.158;8.634;2022-09-29T10:31:26;11.00;99.90
21481;DHT22;10902;48.158;8.634;2022-09-29T10:34:02;11.70;99.90
21481;DHT22;10902;48.158;8.634;2022-09-29T10:36:32;12.00;99.90
21481;DHT22;10902;48.158;8.634;2022-09-29T10:38:58;12.10;99.90
21481;DHT22;10902;48.158;8.634;2022-09-29T10:41:24;11.70;99.90
21481;DHT22;10902;48.158;8.634;2022-09-29T10:43:50;12.10;99.90
21481;DHT22;10902;48.158;8.634;2022-09-29T10:46:37;12.30;99.90
21481;DHT22;10902;48.158;8.634;2022-09-29T10:49:18;12.30;99.90
21481;DHT22;10902;48.158;8.634;2022-09-29T10:51:55;12.50;99.90
21481;DHT22;10902;48.158;8.634;2022-09-29T10:54:23;12.60;99.90
21481;DHT22;10902;48.158;8.634;2022-09-29T10:56:54;12.30;99.90
21481;DHT22;10902;48.158;8.634;2022-09-29T10:59:21;12.40;99.90
21481;DHT22;10902;48.158;8.634;2022-09-29T11:01:58;12.80;99.90
21481;DHT22;10902;48.158;8.634;2022-09-29T11:04:32;12.80;99.90
21481;DHT22;10902;48.158;8.634;2022-09-29T11:07:10;13.90;99.90
21481;DHT22;10902;48.158;8.634;2022-09-29T11:09:42;14.30;99.90
21481;DHT22;10902;48.158;8.634;2022-09-29T11:12:32;14.50;99.90
21481;DHT22;10902;48.158;8.634;2022-09-29T11:15:00;14.70;99.90
21481;DHT22;10902;48.158;8.634;2022-09-29T11:17:35;14.70;99.90
21481;DHT22;10902;48.158;8.634;2022-09-29T11:20:04;14.70;99.90
21481;DHT22;10902;48.158;8.634;2022-09-29T11:25:23;14.40;99.90
21481;DHT22;10902;48.158;8.634;2022-09-29T11:30:50;14.50;99.90
21481;DHT22;10902;48.158;8.634;2022-09-29T11:36:29;15.00;99.90
21481;DHT22;10902;48.158;8.634;2022-09-29T11:44:14;13.80;99.90
21481;DHT22;10902;48.158;8.634;2022-09-29T11:47:06;14.00;99.90
21481;DHT22;10902;48.158;8.634;2022-09-29T11:49:42;13.80;99.90
21481;DHT22;10902;48.158;8.634;2022-09-29T12:00:20;14.50;99.90
21481;DHT22;10902;48.158;8.634;2022-09-29T12:16:18;17.10;99.90
21481;DHT22;10902;48.158;8.634;2022-09-29T12:21:26;17.20;99.90
21481;DHT22;10902;48.158;8.634;2022-09-29T12:23:54;17.10;99.90
21481;DHT22;10902;48.158;8.634;2022-09-29T12:26:22;16.70;99.90
21481;DHT22;10902;48.158;8.634;2022-09-29T12:28:57;16.00;99.90
21481;DHT22;10902;48.158;8.634;2022-09-29T12:31:43;15.40;99.90
21481;DHT22;10902;48.158;8.634;2022-09-29T12:34:31;14.70;99.90
21481;DHT22;10902;48.158;8.634;2022-09-29T12:37:17;14.60;99.90
21481;DHT22;10902;48.158;8.634;2022-09-29T12:40:04;13.90;99.90
21481;DHT22;10902;48.158;8.634;2022-09-29T12:45:39;14.60;99.90
21481;DHT22;10902;48.158;8.634;2022-09-29T12:48:34;15.20;99.90
21481;DHT22;10902;48.158;8.634;2022-09-29T12:56:36;13.90;99.90
21481;DHT22;10902;48.158;8.634;2022-09-29T13:04:56;13.60;99.90
21481;DHT22;10902;48.158;8.634;2022-09-29T13:12:42;13.70;99.90
21481;DHT22;10902;48.158;8.634;2022-09-29T13:21:09;14.40;99.90
21481;DHT22;10902;48.158;8.634;2022-09-29T13:24:06;14.10;99.90
21481;DHT22;10902;48.158;8.634;2022-09-29T13:29:28;14.90;99.90
21481;DHT22;10902;48.158;8.634;2022-09-29T13:31:56;14.90;99.90
21481;DHT22;10902;48.158;8.634;2022-09-29T13:34:35;15.00;99.90
21481;DHT22;10902;48.158;8.634;2022-09-29T13:37:19;15.20;99.90
21481;DHT22;10902;48.158;8.634;2022-09-29T13:42:37;15.30;99.90
21481;DHT22;10902;48.158;8.634;2022-09-29T13:45:36;14.90;99.90
21481;DHT22;10902;48.158;8.634;2022-09-29T13:50:49;14.90;99.90
21481;DHT22;10902;48.158;8.634;2022-09-29T13:58:28;14.80;99.90
21481;DHT22;10902;48.158;8.634;2022-09-29T14:00:56;14.40;99.90
21481;DHT22;10902;48.158;8.634;2022-09-29T14:03:40;14.10;99.90
21481;DHT22;10902;48.158;8.634;2022-09-29T14:06:19;14.10;99.90
21481;DHT22;10902;48.158;8.634;2022-09-29T14:08:54;13.50;99.90
21481;DHT22;10902;48.158;8.634;2022-09-29T14:14:21;13.20;99.90
21481;DHT22;10902;48.158;8.634;2022-09-29T14:17:08;13.00;99.90
21481;DHT22;10902;48.158;8.634;2022-09-29T14:19:56;12.90;99.90
21481;DHT22;10902;48.158;8.634;2022-09-29T14:27:57;12.70;99.90
21481;DHT22;10902;48.158;8.634;2022-09-29T14:32:58;12.70;99.90
21481;DHT22;10902;48.158;8.634;2022-09-29T14:35:31;12.50;99.90
21481;DHT22;10902;48.158;8.634;2022-09-29T14:44:12;12.70;99.90
21481;DHT22;10902;48.158;8.634;2022-09-29T14:52:35;12.40;99.90
21481;DHT22;10902;48.158;8.634;2022-09-29T15:03:49;11.90;99.90
21481;DHT22;10902;48.158;8.634;2022-09-29T15:06:21;11.70;99.90
21481;DHT22;10902;48.158;8.634;2022-09-29T15:09:03;11.60;99.90
21481;DHT22;10902;48.158;8.634;2022-09-29T15:11:44;11.60;99.90
21481;DHT22;10902;48.158;8.634;2022-09-29T15:14:27;11.50;99.90
21481;DHT22;10902;48.158;8.634;2022-09-29T15:22:32;10.70;99.90
21481;DHT22;10902;48.158;8.634;2022-09-29T15:25:21;10.30;99.90
21481;DHT22;10902;48.158;8.634;2022-09-29T15:27:57;9.80;99.90
21481;DHT22;10902;48.158;8.634;2022-09-29T15:30:24;9.30;99.90
21481;DHT22;10902;48.158;8.634;2022-09-29T15:32:52;9.10;99.90
21481;DHT22;10902;48.158;8.634;2022-09-29T15:35:23;8.90;99.90
21481;DHT22;10902;48.158;8.634;2022-09-29T15:40:18;8.70;99.90
21481;DHT22;10902;48.158;8.634;2022-09-29T15:42:45;8.70;99.90
21481;DHT22;10902;48.158;8.634;2022-09-29T15:45:16;8.60;99.90
21481;DHT22;10902;48.158;8.634;2022-09-29T15:47:42;8.70;99.90
21481;DHT22;10902;48.158;8.634;2022-09-29T15:50:19;8.80;99.90
21481;DHT22;10902;48.158;8.634;2022-09-29T15:52:45;8.80;99.90
21481;DHT22;10902;48.158;8.634;2022-09-29T15:55:14;8.70;99.90
21481;DHT22;10902;48.158;8.634;2022-09-29T15:57:50;8.60;99.90
21481;DHT22;10902;48.158;8.634;2022-09-29T16:00:42;8.40;99.90
21481;DHT22;10902;48.158;8.634;2022-09-29T16:06:30;8.30;99.90
21481;DHT22;10902;48.158;8.634;2022-09-29T16:09:05;8.30;99.90
21481;DHT22;10902;48.158;8.634;2022-09-29T16:11:34;8.30;99.90
21481;DHT22;10902;48.158;8.634;2022-09-29T16:14:01;8.30;99.90
21481;DHT22;10902;48.158;8.634;2022-09-29T16:16:32;8.40;99.90
21481;DHT22;10902;48.158;8.634;2022-09-29T16:19:29;8.40;99.90
21481;DHT22;10902;48.158;8.634;2022-09-29T16:21:58;8.40;99.90
21481;DHT22;10902;48.158;8.634;2022-09-29T16:24:30;8.40;99.90
21481;DHT22;10902;48.158;8.634;2022-09-29T16:26:57;8.40;99.90
21481;DHT22;10902;48.158;8.634;2022-09-29T16:29:35;8.40;99.90
21481;DHT22;10902;48.158;8.634;2022-09-29T16:35:36;8.50;99.90
21481;DHT22;10902;48.158;8.634;2022-09-29T16:40:53;8.40;99.90
21481;DHT22;10902;48.158;8.634;2022-09-29T16:45:51;8.30;99.90
21481;DHT22;10902;48.158;8.634;2022-09-29T16:48:18;8.30;99.90
21481;DHT22;10902;48.158;8.634;2022-09-29T16:50:48;8.30;99.90
21481;DHT22;10902;48.158;8.634;2022-09-29T16:53:24;8.30;99.90
21481;DHT22;10902;48.158;8.634;2022-09-29T16:56:15;8.30;99.90
21481;DHT22;10902;48.158;8.634;2022-09-29T16:58:45;8.20;99.90
21481;DHT22;10902;48.158;8.634;2022-09-29T17:01:26;8.30;99.90
21481;DHT22;10902;48.158;8.634;2022-09-29T17:03:52;8.10;99.90
21481;DHT22;10902;48.158;8.634;2022-09-29T17:06:17;8.10;99.90
21481;DHT22;10902;48.158;8.634;2022-09-29T17:08:43;8.10;99.90
21481;DHT22;10902;48.158;8.634;2022-09-29T17:11:09;8.20;99.90
21481;DHT22;10902;48.158;8.634;2022-09-29T17:13:34;8.20;99.90
21481;DHT22;10902;48.158;8.634;2022-09-29T17:16:01;8.20;99.90
21481;DHT22;10902;48.158;8.634;2022-09-29T17:18:27;8.10;99.90
21481;DHT22;10902;48.158;8.634;2022-09-29T17:20:53;8.10;99.90
21481;DHT22;10902;48.158;8.634;2022-09-29T17:23:19;8.00;99.90
21481;DHT22;10902;48.158;8.634;2022-09-29T17:25:46;8.00;99.90
21481;DHT22;10902;48.158;8.634;2022-09-29T17:28:18;8.10;99.90
21481;DHT22;10902;48.158;8.634;2022-09-29T17:30:46;8.20;99.90
21481;DHT22;10902;48.158;8.634;2022-09-29T17:33:14;8.30;99.90
21481;DHT22;10902;48.158;8.634;2022-09-29T17:35:45;8.30;99.90
21481;DHT22;10902;48.158;8.634;2022-09-29T17:38:13;8.30;99.90
21481;DHT22;10902;48.158;8.634;2022-09-29T17:40:49;8.20;99.90
21481;DHT22;10902;48.158;8.634;2022-09-29T17:43:16;8.20;99.90
21481;DHT22;10902;48.158;8.634;2022-09-29T17:45:42;8.40;99.90
21481;DHT22;10902;48.158;8.634;2022-09-29T17:48:09;8.30;99.90
21481;DHT22;10902;48.158;8.634;2022-09-29T17:51:05;8.40;99.90
21481;DHT22;10902;48.158;8.634;2022-09-29T17:53:34;8.40;99.90
21481;DHT22;10902;48.158;8.634;2022-09-29T17:56:00;8.50;99.90
21481;DHT22;10902;48.158;8.634;2022-09-29T17:58:27;8.40;99.90
21481;DHT22;10902;48.158;8.634;2022-09-29T18:00:55;8.60;99.90
21481;DHT22;10902;48.158;8.634;2022-09-29T18:03:24;8.70;99.90
21481;DHT22;10902;48.158;8.634;2022-09-29T18:05:54;8.70;99.90
21481;DHT22;10902;48.158;8.634;2022-09-29T18:08:22;8.60;99.90
21481;DHT22;10902;48.158;8.634;2022-09-29T18:10:57;8.60;99.90
21481;DHT22;10902;48.158;8.634;2022-09-29T18:13:24;8.50;99.90
21481;DHT22;10902;48.158;8.634;2022-09-29T18:15:52;8.30;99.90
21481;DHT22;10902;48.158;8.634;2022-09-29T18:18:19;8.30;99.90
21481;DHT22;10902;48.158;8.634;2022-09-29T18:20:47;8.40;99.90
21481;DHT22;10902;48.158;8.634;2022-09-29T18:23:14;8.40;99.90
21481;DHT22;10902;48.158;8.634;2022-09-29T18:25:41;8.40;99.90
21481;DHT22;10902;48.158;8.634;2022-09-29T18:28:12;8.30;99.90
21481;DHT22;10902;48.158;8.634;2022-09-29T18:30:40;8.20;99.90
21481;DHT22;10902;48.158;8.634;2022-09-29T18:33:11;8.30;99.90
21481;DHT22;10902;48.158;8.634;2022-09-29T18:35:37;8.40;99.90
21481;DHT22;10902;48.158;8.634;2022-09-29T18:38:06;8.40;99.90
21481;DHT22;10902;48.158;8.634;2022-09-29T18:40:33;8.40;99.90
21481;DHT22;10902;48.158;8.634;2022-09-29T18:42:59;8.40;99.90
21481;DHT22;10902;48.158;8.634;2022-09-29T18:45:28;8.60;99.90
21481;DHT22;10902;48.158;8.634;2022-09-29T18:47:56;8.70;99.90
21481;DHT22;10902;48.158;8.634;2022-09-29T18:50:27;8.70;99.90
21481;DHT22;10902;48.158;8.634;2022-09-29T18:52:53;8.60;99.90
21481;DHT22;10902;48.158;8.634;2022-09-29T18:55:21;8.60;99.90
21481;DHT22;10902;48.158;8.634;2022-09-29T18:57:49;8.60;99.90
21481;DHT22;10902;48.158;8.634;2022-09-29T19:00:17;8.60;99.90
21481;DHT22;10902;48.158;8.634;2022-09-29T19:02:44;8.60;99.90
21481;DHT22;10902;48.158;8.634;2022-09-29T19:05:15;8.50;99.90
21481;DHT22;10902;48.158;8.634;2022-09-29T19:07:43;8.40;99.90
21481;DHT22;10902;48.158;8.634;2022-09-29T19:10:10;8.20;99.90
21481;DHT22;10902;48.158;8.634;2022-09-29T19:12:36;8.10;99.90
21481;DHT22;10902;48.158;8.634;2022-09-29T19:15:02;8.20;99.90
21481;DHT22;10902;48.158;8.634;2022-09-29T19:17:29;8.10;99.90
21481;DHT22;10902;48.158;8.634;2022-09-29T19:19:56;8.10;99.90
21481;DHT22;10902;48.158;8.634;2022-09-29T19:22:22;8.00;99.90
21481;DHT22;10902;48.158;8.634;2022-09-29T19:24:50;8.00;99.90
21481;DHT22;10902;48.158;8.634;2022-09-29T19:27:15;8.00;99.90
21481;DHT22;10902;48.158;8.634;2022-09-29T19:29:41;8.00;99.90
21481;DHT22;10902;48.158;8.634;2022-09-29T19:32:07;8.00;99.90
21481;DHT22;10902;48.158;8.634;2022-09-29T19:34:33;7.90;99.90
21481;DHT22;10902;48.158;8.634;2022-09-29T19:36:59;7.90;99.90
21481;DHT22;10902;48.158;8.634;2022-09-29T19:39:24;7.90;99.90
21481;DHT22;10902;48.158;8.634;2022-09-29T19:41:53;7.90;99.90
21481;DHT22;10902;48.158;8.634;2022-09-29T19:44:19;7.80;99.90
21481;DHT22;10902;48.158;8.634;2022-09-29T19:46:47;7.80;99.90
21481;DHT22;10902;48.158;8.634;2022-09-29T19:49:14;7.80;99.90
21481;DHT22;10902;48.158;8.634;2022-09-29T19:51:39;7.70;99.90
21481;DHT22;10902;48.158;8.634;2022-09-29T19:54:15;7.70;99.90
21481;DHT22;10902;48.158;8.634;2022-09-29T19:56:48;8.00;99.90
21481;DHT22;10902;48.158;8.634;2022-09-29T19:59:16;8.30;99.90
21481;DHT22;10902;48.158;8.634;2022-09-29T20:01:43;8.30;99.90
21481;DHT22;10902;48.158;8.634;2022-09-29T20:04:10;8.20;99.90
21481;DHT22;10902;48.158;8.634;2022-09-29T20:06:37;8.20;99.90
21481;DHT22;10902;48.158;8.634;2022-09-29T20:09:04;8.10;99.90
21481;DHT22;10902;48.158;8.634;2022-09-29T20:11:30;8.00;99.90
21481;DHT22;10902;48.158;8.634;2022-09-29T20:14:00;8.10;99.90
21481;DHT22;10902;48.158;8.634;2022-09-29T20:16:36;8.30;99.90
21481;DHT22;10902;48.158;8.634;2022-09-29T20:19:03;8.30;99.90
21481;DHT22;10902;48.158;8.634;2022-09-29T20:21:30;8.10;99.90
21481;DHT22;10902;48.158;8.634;2022-09-29T20:23:56;8.00;99.90
21481;DHT22;10902;48.158;8.634;2022-09-29T20:26:25;7.90;99.90
21481;DHT22;10902;48.158;8.634;2022-09-29T20:28:52;7.90;99.90
21481;DHT22;10902;48.158;8.634;2022-09-29T20:31:21;7.80;99.90
21481;DHT22;10902;48.158;8.634;2022-09-29T20:33:48;7.80;99.90
21481;DHT22;10902;48.158;8.634;2022-09-29T20:36:14;7.70;99.90
21481;DHT22;10902;48.158;8.634;2022-09-29T20:38:42;7.70;99.90
21481;DHT22;10902;48.158;8.634;2022-09-29T20:41:09;7.70;99.90
21481;DHT22;10902;48.158;8.634;2022-09-29T20:43:37;7.70;99.90
21481;DHT22;10902;48.158;8.634;2022-09-29T20:46:05;7.80;99.90
21481;DHT22;10902;48.158;8.634;2022-09-29T20:48:33;7.70;99.90
21481;DHT22;10902;48.158;8.634;2022-09-29T20:50:59;7.70;99.90
21481;DHT22;10902;48.158;8.634;2022-09-29T20:53:26;7.70;99.90
21481;DHT22;10902;48.158;8.634;2022-09-29T20:56:06;7.70;99.90
21481;DHT22;10902;48.158;8.634;2022-09-29T20:58:33;7.60;99.90
21481;DHT22;10902;48.158;8.634;2022-09-29T21:01:18;7.60;99.90
21481;DHT22;10902;48.158;8.634;2022-09-29T21:03:58;7.60;99.90
21481;DHT22;10902;48.158;8.634;2022-09-29T21:06:29;7.50;99.90
21481;DHT22;10902;48.158;8.634;2022-09-29T21:08:56;7.50;99.90
21481;DHT22;10902;48.158;8.634;2022-09-29T21:11:22;7.60;99.90
21481;DHT22;10902;48.158;8.634;2022-09-29T21:13:49;7.70;99.90
21481;DHT22;10902;48.158;8.634;2022-09-29T21:16:15;7.70;99.90
21481;DHT22;10902;48.158;8.634;2022-09-29T21:18:41;7.70;99.90
21481;DHT22;10902;48.158;8.634;2022-09-29T21:21:07;7.70;99.90
21481;DHT22;10902;48.158;8.634;2022-09-29T21:23:34;7.70;99.90
21481;DHT22;10902;48.158;8.634;2022-09-29T21:26:04;7.70;99.90
21481;DHT22;10902;48.158;8.634;2022-09-29T21:28:31;7.70;99.90
21481;DHT22;10902;48.158;8.634;2022-09-29T21:31:02;7.60;99.90
21481;DHT22;10902;48.158;8.634;2022-09-29T21:33:28;7.70;99.90
21481;DHT22;10902;48.158;8.634;2022-09-29T21:35:56;7.60;99.90
21481;DHT22;10902;48.158;8.634;2022-09-29T21:38:21;7.60;99.90
21481;DHT22;10902;48.158;8.634;2022-09-29T21:40:47;7.60;99.90
21481;DHT22;10902;48.158;8.634;2022-09-29T21:43:12;7.60;99.90
21481;DHT22;10902;48.158;8.634;2022-09-29T21:45:38;7.60;99.90
21481;DHT22;10902;48.158;8.634;2022-09-29T21:48:04;7.60;99.90
21481;DHT22;10902;48.158;8.634;2022-09-29T21:50:32;7.50;99.90
21481;DHT22;10902;48.158;8.634;2022-09-29T21:52:59;7.50;99.90
21481;DHT22;10902;48.158;8.634;2022-09-29T21:55:25;7.50;99.90
21481;DHT22;10902;48.158;8.634;2022-09-29T21:57:50;7.50;99.90
21481;DHT22;10902;48.158;8.634;2022-09-29T22:00:17;7.50;99.90
21481;DHT22;10902;48.158;8.634;2022-09-29T22:02:43;7.50;99.90
21481;DHT22;10902;48.158;8.634;2022-09-29T22:05:08;7.50;99.90
21481;DHT22;10902;48.158;8.634;2022-09-29T22:07:34;7.50;99.90
21481;DHT22;10902;48.158;8.634;2022-09-29T22:09:59;7.50;99.90
21481;DHT22;10902;48.158;8.634;2022-09-29T22:12:25;7.40;99.90
21481;DHT22;10902;48.158;8.634;2022-09-29T22:14:51;7.40;99.90
21481;DHT22;10902;48.158;8.634;2022-09-29T22:17:16;7.40;99.90